createdAt,value
2022-10-28T00:00:26.986Z,2.83
2022-10-28T00:03:12.058Z,3.77
2022-10-28T00:06:09.548Z,2.70
2022-10-28T00:08:55.417Z,3.93
2022-10-28T00:11:41.193Z,3.47
2022-10-28T00:14:26.596Z,6.17
2022-10-28T00:17:12.208Z,3.97
2022-10-28T00:19:57.659Z,2.40
2022-10-28T00:22:43.383Z,4.90
2022-10-28T00:25:28.840Z,3.73
2022-10-28T00:28:13.986Z,3.53
2022-10-28T00:31:07.310Z,4.43
2022-10-28T00:36:41.281Z,2.90
2022-10-28T00:39:27.602Z,3.73
2022-10-28T00:42:20.595Z,3.27
2022-10-28T00:45:06.478Z,2.45
2022-10-28T00:48:02.233Z,2.70
2022-10-28T00:50:53.637Z,3.10
2022-10-28T00:53:42.041Z,3.63
2022-10-28T00:56:36.808Z,2.87
2022-10-28T00:59:27.054Z,2.57
2022-10-28T01:02:12.830Z,2.63
2022-10-28T01:04:58.302Z,3.47
2022-10-28T01:07:44.831Z,4.07
2022-10-28T01:10:57.534Z,2.63
2022-10-28T01:14:19.915Z,3.13
2022-10-28T01:17:20.771Z,3.83
2022-10-28T01:20:18.508Z,2.63
2022-10-28T01:23:32.717Z,3.83
2022-10-28T01:26:30.057Z,3.63
2022-10-28T01:29:18.374Z,3.00
2022-10-28T01:32:09.980Z,2.73
2022-10-28T01:35:15.493Z,2.60
2022-10-28T01:38:28.311Z,3.70
2022-10-28T01:41:22.831Z,2.93
2022-10-28T01:44:15.610Z,3.47
2022-10-28T01:47:49.264Z,2.37
2022-10-28T01:50:55.045Z,3.20
2022-10-28T01:53:45.437Z,2.57
2022-10-28T01:56:35.758Z,2.70
2022-10-28T01:59:25.002Z,3.10
2022-10-28T02:02:10.479Z,2.83
2022-10-28T02:05:26.003Z,2.27
2022-10-28T02:08:25.218Z,3.47
2022-10-28T02:11:22.618Z,2.93
2022-10-28T02:14:26.415Z,2.17
2022-10-28T02:17:40.165Z,3.50
2022-10-28T02:20:46.951Z,3.03
2022-10-28T02:23:44.100Z,3.07
2022-10-28T02:26:36.208Z,2.60
2022-10-28T02:29:39.017Z,2.80
2022-10-28T02:32:28.775Z,3.03
2022-10-28T02:35:38.889Z,2.57
2022-10-28T02:38:42.335Z,2.00
2022-10-28T02:41:34.740Z,2.05
2022-10-28T02:44:35.435Z,1.65
2022-10-28T02:47:25.288Z,3.17
2022-10-28T02:50:15.915Z,3.00
2022-10-28T02:53:05.728Z,3.47
2022-10-28T02:55:53.747Z,2.40
2022-10-28T02:58:40.724Z,2.73
2022-10-28T03:01:26.180Z,3.13
2022-10-28T03:04:11.194Z,2.13
2022-10-28T03:06:56.496Z,2.47
2022-10-28T03:09:41.876Z,2.57
2022-10-28T03:12:27.158Z,4.03
2022-10-28T03:15:12.479Z,2.73
2022-10-28T03:17:57.749Z,2.30
2022-10-28T03:20:43.016Z,4.97
2022-10-28T03:23:28.245Z,3.03
2022-10-28T03:26:13.524Z,3.00
2022-10-28T03:28:58.749Z,2.27
2022-10-28T03:31:44.120Z,2.63
2022-10-28T03:34:29.814Z,2.67
2022-10-28T03:37:14.977Z,2.73
2022-10-28T03:40:02.526Z,2.23
2022-10-28T03:42:47.729Z,3.27
2022-10-28T03:45:32.942Z,1.90
2022-10-28T03:48:18.311Z,2.10
2022-10-28T03:51:03.826Z,3.13
2022-10-28T03:53:49.303Z,3.13
2022-10-28T03:56:34.546Z,2.77
2022-10-28T03:59:20.386Z,2.13
2022-10-28T04:02:05.852Z,2.30
2022-10-28T04:04:51.571Z,2.80
2022-10-28T04:07:36.817Z,2.00
2022-10-28T04:10:22.040Z,2.20
2022-10-28T04:13:07.318Z,2.53
2022-10-28T04:15:52.730Z,2.10
2022-10-28T04:18:37.996Z,2.03
2022-10-28T04:21:23.338Z,2.20
2022-10-28T04:24:08.567Z,1.97
2022-10-28T04:26:53.771Z,1.87
2022-10-28T04:29:39.080Z,2.20
2022-10-28T04:32:24.396Z,2.30
2022-10-28T04:35:11.219Z,2.47
2022-10-28T04:37:56.887Z,3.67
2022-10-28T04:40:42.504Z,2.07
2022-10-28T04:43:27.843Z,1.87
2022-10-28T04:46:12.941Z,2.37
2022-10-28T04:48:58.356Z,2.37
2022-10-28T04:51:43.628Z,2.00
2022-10-28T04:54:29.567Z,1.93
2022-10-28T04:57:14.628Z,2.30
2022-10-28T04:59:59.840Z,2.30
2022-10-28T05:02:46.153Z,2.20
2022-10-28T05:05:31.516Z,1.83
2022-10-28T05:08:16.579Z,2.00
2022-10-28T05:11:01.688Z,2.37
2022-10-28T05:13:46.931Z,2.60
2022-10-28T05:16:32.388Z,2.90
2022-10-28T05:19:17.515Z,1.50
2022-10-28T05:22:02.917Z,1.77
2022-10-28T05:24:48.121Z,1.83
2022-10-28T05:27:33.369Z,1.90
2022-10-28T05:30:19.434Z,1.97
2022-10-28T05:33:05.119Z,2.27
2022-10-28T05:35:50.768Z,6.33
2022-10-28T05:38:36.245Z,9.00
2022-10-28T05:41:23.320Z,4.57
2022-10-28T05:44:08.829Z,7.57
2022-10-28T05:46:55.205Z,7.60
2022-10-28T05:49:40.445Z,10.33
2022-10-28T05:52:25.673Z,7.93
2022-10-28T05:55:11.020Z,8.97
2022-10-28T05:57:57.301Z,6.33
2022-10-28T06:00:43.001Z,3.27
2022-10-28T06:03:31.043Z,5.60
2022-10-28T06:06:16.838Z,6.53
2022-10-28T06:09:02.153Z,5.30
2022-10-28T06:11:46.085Z,6.67
2022-10-28T06:14:31.358Z,7.93
2022-10-28T06:17:16.686Z,4.43
2022-10-28T06:20:02.866Z,6.47
2022-10-28T06:22:50.117Z,9.30
2022-10-28T06:25:35.789Z,9.00
2022-10-28T06:28:21.112Z,4.83
2022-10-28T06:31:10.291Z,13.57
2022-10-28T06:33:56.323Z,13.50
2022-10-28T06:36:41.621Z,6.53
2022-10-28T06:42:17.541Z,5.40
2022-10-28T06:45:03.393Z,5.50
2022-10-28T06:47:50.152Z,7.93
2022-10-28T06:50:36.594Z,4.87
2022-10-28T06:53:22.538Z,5.60
2022-10-28T06:56:10.707Z,7.03
2022-10-28T06:58:56.339Z,11.27
2022-10-28T07:01:41.941Z,7.43
2022-10-28T07:04:27.601Z,4.27
2022-10-28T07:07:13.573Z,5.03
2022-10-28T07:09:59.080Z,2.93
2022-10-28T07:12:44.479Z,5.87
2022-10-28T07:15:30.397Z,3.50
2022-10-28T07:18:15.547Z,5.27
2022-10-28T07:21:01.656Z,7.00
2022-10-28T07:23:47.587Z,6.53
2022-10-28T07:26:33.220Z,4.57
2022-10-28T07:29:18.496Z,3.80
2022-10-28T07:32:03.814Z,5.20
2022-10-28T07:34:49.224Z,7.57
2022-10-28T07:37:34.637Z,5.33
2022-10-28T07:40:21.240Z,7.20
2022-10-28T07:43:06.805Z,3.93
2022-10-28T07:45:58.402Z,4.10
2022-10-28T07:48:44.128Z,4.13
2022-10-28T07:51:30.223Z,5.50
2022-10-28T07:54:15.437Z,5.33
2022-10-28T07:57:00.901Z,6.20
2022-10-28T07:59:46.116Z,6.63
2022-10-28T08:02:31.559Z,3.67
2022-10-28T08:05:17.827Z,4.10
2022-10-28T08:08:03.268Z,4.03
2022-10-28T08:10:48.477Z,3.00
2022-10-28T08:13:36.788Z,5.03
2022-10-28T08:16:24.801Z,7.00
2022-10-28T08:19:11.086Z,4.07
2022-10-28T08:21:56.983Z,6.10
2022-10-28T08:24:42.044Z,4.43
2022-10-28T08:27:27.272Z,6.57
2022-10-28T08:30:12.594Z,4.00
2022-10-28T08:32:58.204Z,5.50
2022-10-28T08:35:44.139Z,4.80
2022-10-28T08:38:29.378Z,3.60
2022-10-28T08:41:55.478Z,4.37
2022-10-28T08:44:59.519Z,7.00
2022-10-28T08:47:54.357Z,4.50
2022-10-28T08:51:09.293Z,3.00
2022-10-28T08:54:00.221Z,3.90
2022-10-28T08:56:47.660Z,5.67
2022-10-28T08:59:39.142Z,4.47
2022-10-28T09:02:31.064Z,4.90
2022-10-28T09:05:19.824Z,4.17
2022-10-28T09:08:06.799Z,4.17
2022-10-28T09:11:04.166Z,5.27
2022-10-28T09:13:58.638Z,2.77
2022-10-28T09:16:48.514Z,3.83
2022-10-28T09:19:53.310Z,3.87
2022-10-28T09:22:44.453Z,5.40
2022-10-28T09:26:14.422Z,3.30
2022-10-28T09:29:11.873Z,3.43
2022-10-28T09:32:05.158Z,3.87
2022-10-28T09:34:57.917Z,3.85
2022-10-28T09:38:10.803Z,3.75
2022-10-28T09:41:04.352Z,4.40
2022-10-28T09:43:57.251Z,2.80
2022-10-28T09:46:47.753Z,3.20
2022-10-28T09:49:36.520Z,4.23
2022-10-28T09:52:27.195Z,4.03
2022-10-28T09:55:23.315Z,6.10
2022-10-28T09:58:12.108Z,5.83
2022-10-28T10:00:57.422Z,4.77
2022-10-28T10:03:43.706Z,2.70
2022-10-28T10:06:42.809Z,2.60
2022-10-28T10:09:31.321Z,5.20
2022-10-28T10:12:17.247Z,4.73
2022-10-28T10:15:06.276Z,3.13
2022-10-28T10:17:52.322Z,3.87
2022-10-28T10:20:53.471Z,3.13
2022-10-28T10:26:25.367Z,3.43
2022-10-28T10:29:13.318Z,4.70
2022-10-28T10:32:13.953Z,3.83
2022-10-28T10:35:15.463Z,3.97
2022-10-28T10:38:03.057Z,6.53
2022-10-28T10:40:51.440Z,5.67
2022-10-28T10:43:37.184Z,5.57
2022-10-28T10:46:22.731Z,6.13
2022-10-28T10:49:14.284Z,5.37
2022-10-28T10:52:22.853Z,6.57
2022-10-28T10:55:22.283Z,6.77
2022-10-28T10:58:18.890Z,6.47
2022-10-28T11:01:07.596Z,6.27
2022-10-28T11:12:52.462Z,6.97
2022-10-28T11:15:37.945Z,8.93
2022-10-28T11:18:23.966Z,7.67
2022-10-28T11:21:47.972Z,7.17
2022-10-28T11:25:16.041Z,10.63
2022-10-28T11:28:19.464Z,9.50
2022-10-28T11:34:02.452Z,10.23
2022-10-28T11:36:56.086Z,15.77
2022-10-28T11:39:50.728Z,13.68
2022-10-28T11:42:45.125Z,17.93
2022-10-28T11:45:48.607Z,15.63
2022-10-28T11:48:56.305Z,13.47
2022-10-28T11:52:13.628Z,14.20
2022-10-28T11:55:26.024Z,15.33
2022-10-28T12:01:13.382Z,16.55
2022-10-28T12:04:17.482Z,13.37
2022-10-28T12:07:41.633Z,18.53
2022-10-28T12:10:48.933Z,12.50
2022-10-28T12:14:08.464Z,13.50
2022-10-28T12:17:22.922Z,12.40
2022-10-28T12:20:24.442Z,12.40
2022-10-28T12:23:16.980Z,11.77
2022-10-28T12:26:07.211Z,9.20
2022-10-28T12:28:57.996Z,11.67
2022-10-28T12:31:47.884Z,11.90
2022-10-28T12:34:51.010Z,13.43
2022-10-28T12:37:55.446Z,10.50
2022-10-28T12:40:46.132Z,9.50
2022-10-28T12:43:43.100Z,9.33
2022-10-28T12:46:34.549Z,10.70
2022-10-28T12:49:57.419Z,11.97
2022-10-28T12:53:00.027Z,12.87
2022-10-28T12:55:59.685Z,8.85
2022-10-28T12:59:01.060Z,10.03
2022-10-28T13:01:49.935Z,6.83
2022-10-28T13:04:37.569Z,10.73
2022-10-28T13:07:34.858Z,13.33
2022-10-28T13:11:18.850Z,9.83
2022-10-28T13:14:19.469Z,7.38
2022-10-28T13:17:30.022Z,8.10
2022-10-28T13:20:37.276Z,13.23
2022-10-28T13:23:37.150Z,9.93
2022-10-28T13:26:34.638Z,8.63
2022-10-28T13:29:27.469Z,8.40
2022-10-28T13:32:42.735Z,12.40
2022-10-28T13:35:30.389Z,9.67
2022-10-28T13:38:24.601Z,9.27
2022-10-28T13:41:26.146Z,14.60
2022-10-28T13:44:47.109Z,8.03
2022-10-28T13:47:36.522Z,9.63
2022-10-28T13:50:33.257Z,11.33
2022-10-28T13:53:24.601Z,12.73
2022-10-28T13:56:12.264Z,9.83
2022-10-28T13:59:01.992Z,9.10
2022-10-28T14:01:56.716Z,6.93
2022-10-28T14:04:59.274Z,10.00
2022-10-28T14:08:00.606Z,9.97
2022-10-28T14:11:07.562Z,6.57
2022-10-28T14:14:00.951Z,10.23
2022-10-28T14:16:46.645Z,7.93
2022-10-28T14:19:32.440Z,11.93
2022-10-28T14:22:30.654Z,7.90
2022-10-28T14:25:41.058Z,10.47
2022-10-28T14:28:29.828Z,10.90
2022-10-28T14:31:20.951Z,7.60
2022-10-28T14:34:12.756Z,10.27
2022-10-28T14:37:28.610Z,6.47
2022-10-28T14:48:57.642Z,7.70
2022-10-28T14:51:44.772Z,9.33
2022-10-28T14:54:39.666Z,12.00
2022-10-28T14:57:33.895Z,9.47
2022-10-28T15:03:11.177Z,7.77
2022-10-28T15:06:01.441Z,6.37
2022-10-28T15:08:46.989Z,8.33
2022-10-28T15:11:33.516Z,8.30
2022-10-28T15:14:26.774Z,8.37
2022-10-28T15:17:24.742Z,7.20
2022-10-28T15:20:23.255Z,12.77
2022-10-28T15:23:26.840Z,13.53
2022-10-28T15:26:14.934Z,20.60
2022-10-28T15:29:01.236Z,15.43
2022-10-28T15:32:13.603Z,13.67
2022-10-28T15:34:59.929Z,17.43
2022-10-28T15:37:45.408Z,12.00
2022-10-28T15:40:32.215Z,16.83
2022-10-28T15:43:29.061Z,15.23
2022-10-28T15:46:17.024Z,12.03
2022-10-28T15:49:03.132Z,17.57
2022-10-28T15:52:17.142Z,19.37
2022-10-28T15:55:19.775Z,15.33
2022-10-28T15:58:15.090Z,15.80
2022-10-28T16:01:09.319Z,11.97
2022-10-28T16:03:55.261Z,10.80
2022-10-28T16:06:40.782Z,13.63
2022-10-28T16:09:36.393Z,13.23
2022-10-28T16:12:24.921Z,13.83
2022-10-28T16:15:15.364Z,11.47
2022-10-28T16:18:00.849Z,12.83
2022-10-28T16:20:46.292Z,10.20
2022-10-28T16:23:39.744Z,11.63
2022-10-28T16:26:26.537Z,13.27
2022-10-28T16:29:11.759Z,12.20
2022-10-28T16:31:56.965Z,11.73
2022-10-28T16:34:42.342Z,14.47
2022-10-28T16:37:30.170Z,16.27
2022-10-28T16:40:37.740Z,9.80
2022-10-28T16:43:24.552Z,15.10
2022-10-28T16:46:12.564Z,12.90
2022-10-28T16:48:57.869Z,10.73
2022-10-28T16:51:44.478Z,13.77
2022-10-28T16:54:29.969Z,11.47
2022-10-28T16:57:16.505Z,10.30
2022-10-28T17:00:02.044Z,12.43
2022-10-28T17:02:50.788Z,13.37
2022-10-28T17:05:36.391Z,16.07
2022-10-28T17:08:42.120Z,11.97
2022-10-28T17:11:27.012Z,15.27
2022-10-28T17:14:12.486Z,13.83
2022-10-28T17:16:58.258Z,11.40
2022-10-28T17:19:45.660Z,15.97
2022-10-28T17:22:31.474Z,13.40
2022-10-28T17:25:16.744Z,14.80
2022-10-28T17:28:02.303Z,12.27
2022-10-28T17:30:47.583Z,14.57
2022-10-28T17:33:33.560Z,14.93
2022-10-28T17:36:19.499Z,18.20
2022-10-28T17:39:05.376Z,14.23
2022-10-28T17:41:50.956Z,13.10
2022-10-28T17:44:36.859Z,14.73
2022-10-28T17:47:22.744Z,12.60
2022-10-28T17:50:08.594Z,13.87
2022-10-28T17:52:54.722Z,15.33
2022-10-28T17:55:42.198Z,17.93
2022-10-28T17:58:27.961Z,17.00
2022-10-28T18:01:13.381Z,12.00
2022-10-28T18:03:58.919Z,15.53
2022-10-28T18:06:43.993Z,13.40
2022-10-28T18:09:31.795Z,12.93
2022-10-28T18:13:10.761Z,15.90
2022-10-28T18:15:57.656Z,14.63
2022-10-28T18:18:43.442Z,12.67
2022-10-28T18:21:28.985Z,13.60
2022-10-28T18:24:14.875Z,15.13
2022-10-28T18:27:00.629Z,16.23
2022-10-28T18:29:45.952Z,16.07
2022-10-28T18:32:32.541Z,19.50
2022-10-28T18:35:18.025Z,20.67
2022-10-28T18:38:03.329Z,14.73
2022-10-28T18:40:48.533Z,18.90
2022-10-28T18:43:34.079Z,19.83
2022-10-28T18:46:19.463Z,20.13
2022-10-28T18:49:07.740Z,16.87
2022-10-28T18:51:53.229Z,19.80
2022-10-28T18:54:38.542Z,19.73
2022-10-28T18:57:23.638Z,19.80
2022-10-28T19:00:17.885Z,17.37
2022-10-28T19:03:04.602Z,16.83
2022-10-28T19:05:49.993Z,17.43
2022-10-28T19:08:35.675Z,16.97
2022-10-28T19:11:22.677Z,16.57
2022-10-28T19:14:10.297Z,19.73
2022-10-28T19:16:56.049Z,16.13
2022-10-28T19:19:42.043Z,15.47
2022-10-28T19:22:28.308Z,16.57
2022-10-28T19:25:13.957Z,13.37
2022-10-28T19:28:00.484Z,15.73
2022-10-28T19:30:45.712Z,20.40
2022-10-28T19:33:32.207Z,16.67
2022-10-28T19:36:23.869Z,17.90
2022-10-28T19:39:09.213Z,18.30
2022-10-28T19:41:55.042Z,19.87
2022-10-28T19:44:41.129Z,15.07
2022-10-28T19:47:27.547Z,20.40
2022-10-28T19:50:13.868Z,20.40
2022-10-28T19:52:59.529Z,17.90
2022-10-28T19:55:45.081Z,21.07
2022-10-28T19:58:31.912Z,17.17
2022-10-28T20:01:17.764Z,17.00
2022-10-28T20:04:05.270Z,20.67
2022-10-28T20:06:51.297Z,20.93
2022-10-28T20:09:37.111Z,23.83
2022-10-28T20:12:23.071Z,20.83
2022-10-28T20:15:08.847Z,21.83
2022-10-28T20:17:54.482Z,20.20
2022-10-28T20:20:39.971Z,19.67
2022-10-28T20:23:25.571Z,18.43
2022-10-28T20:26:12.760Z,18.43
2022-10-28T20:28:59.464Z,21.63
2022-10-28T20:31:45.260Z,19.57
2022-10-28T20:34:30.701Z,22.90
2022-10-28T20:37:15.919Z,18.37
2022-10-28T20:40:06.265Z,18.57
2022-10-28T20:42:53.105Z,16.90
2022-10-28T20:45:38.695Z,19.60
2022-10-28T20:48:23.902Z,19.10
2022-10-28T20:51:09.431Z,17.93
2022-10-28T20:53:55.359Z,21.23
2022-10-28T20:56:41.966Z,19.73
2022-10-28T20:59:27.556Z,19.80
2022-10-28T21:02:13.511Z,17.63
2022-10-28T21:04:59.090Z,17.97
2022-10-28T21:07:44.337Z,19.87
2022-10-28T21:10:29.741Z,19.27
2022-10-28T21:13:15.103Z,17.60
2022-10-28T21:16:07.727Z,17.33
2022-10-28T21:18:53.411Z,24.33
2022-10-28T21:21:38.926Z,19.07
2022-10-28T21:24:24.309Z,17.67
2022-10-28T21:27:09.469Z,19.07
2022-10-28T21:29:56.932Z,16.80
2022-10-28T21:32:42.105Z,16.80
2022-10-28T21:35:27.390Z,20.33
2022-10-28T21:38:13.616Z,17.23
2022-10-28T21:41:12.201Z,17.83
2022-10-28T21:43:57.681Z,23.80
2022-10-28T21:46:42.951Z,17.20
2022-10-28T21:49:28.530Z,18.67
2022-10-28T21:52:13.914Z,20.60
2022-10-28T21:55:00.862Z,19.30
2022-10-28T21:57:48.317Z,19.00
2022-10-28T22:00:33.406Z,17.73
2022-10-28T22:03:19.234Z,17.47
2022-10-28T22:06:05.891Z,17.10
2022-10-28T22:08:55.349Z,15.73
2022-10-28T22:11:40.938Z,19.20
2022-10-28T22:14:26.319Z,15.67
2022-10-28T22:17:11.529Z,15.77
2022-10-28T22:19:56.904Z,17.27
2022-10-28T22:22:42.231Z,15.67
2022-10-28T22:25:27.427Z,14.40
2022-10-28T22:28:13.554Z,16.33
2022-10-28T22:31:05.261Z,16.17
2022-10-28T22:33:51.323Z,16.33
2022-10-28T22:36:37.100Z,13.83
2022-10-28T22:39:22.402Z,15.37
2022-10-28T22:42:07.690Z,15.37
2022-10-28T22:44:52.807Z,11.57
2022-10-28T22:47:38.001Z,11.60
2022-10-28T22:50:23.263Z,13.43
2022-10-28T22:53:08.390Z,13.77
2022-10-28T22:55:54.198Z,12.67
2022-10-28T22:58:39.637Z,12.83
2022-10-28T23:01:26.110Z,11.23
2022-10-28T23:04:12.037Z,10.93
2022-10-28T23:06:57.436Z,11.97
2022-10-28T23:09:42.717Z,8.40
2022-10-28T23:12:28.088Z,12.97
2022-10-28T23:15:13.283Z,11.07
2022-10-28T23:17:58.735Z,15.23
2022-10-28T23:20:44.230Z,11.50
2022-10-28T23:23:29.522Z,8.73
2022-10-28T23:26:18.117Z,10.67
2022-10-28T23:29:03.548Z,11.13
2022-10-28T23:31:48.739Z,7.10
2022-10-28T23:34:33.934Z,8.97
2022-10-28T23:37:19.153Z,9.93
2022-10-28T23:40:05.322Z,9.70
2022-10-28T23:42:50.559Z,10.13
2022-10-28T23:45:35.890Z,10.30
2022-10-28T23:48:21.507Z,9.37
2022-10-28T23:51:07.244Z,9.37
2022-10-28T23:53:52.493Z,8.80
2022-10-28T23:56:37.813Z,10.10
2022-10-28T23:59:23.422Z,11.23
